createdAt,value
2023-01-31T00:02:00.581Z,1.72
2023-01-31T00:04:28.737Z,1.68
2023-01-31T00:06:58.109Z,1.64
2023-01-31T00:09:26.139Z,1.67
2023-01-31T00:11:54.502Z,1.63
2023-01-31T00:14:22.741Z,1.53
2023-01-31T00:16:52.181Z,1.53
2023-01-31T00:19:20.264Z,1.58
2023-01-31T00:21:48.292Z,1.62
2023-01-31T00:24:17.825Z,1.57
2023-01-31T00:26:46.371Z,1.57
2023-01-31T00:29:14.351Z,1.56
2023-01-31T00:31:42.545Z,1.52
2023-01-31T00:34:12.618Z,1.58
2023-01-31T00:36:44.223Z,1.58
2023-01-31T00:39:12.435Z,1.51
2023-01-31T00:41:41.828Z,1.47
2023-01-31T00:44:09.802Z,1.44
2023-01-31T00:46:39.932Z,1.43
2023-01-31T00:49:08.140Z,1.42
2023-01-31T00:51:36.542Z,1.43
2023-01-31T00:54:04.774Z,1.38
2023-01-31T00:56:33.809Z,1.37
2023-01-31T00:59:04.497Z,1.34
2023-01-31T01:01:33.278Z,1.31
2023-01-31T01:04:01.362Z,1.32
2023-01-31T01:06:34.898Z,1.34
2023-01-31T01:09:03.316Z,1.35
2023-01-31T01:11:33.454Z,1.36
2023-01-31T01:14:04.429Z,1.30
2023-01-31T01:16:35.536Z,1.25
2023-01-31T01:19:06.119Z,1.27
2023-01-31T01:21:39.065Z,1.23
2023-01-31T01:24:09.529Z,1.18
2023-01-31T01:26:40.550Z,1.21
2023-01-31T01:29:10.363Z,1.26
2023-01-31T01:31:39.438Z,1.29
2023-01-31T01:34:09.801Z,1.23
2023-01-31T01:36:39.209Z,1.21
2023-01-31T01:39:10.092Z,1.21
2023-01-31T01:41:40.033Z,1.25
2023-01-31T01:44:48.527Z,1.15
2023-01-31T01:47:23.115Z,1.15
2023-01-31T01:49:56.117Z,1.17
2023-01-31T01:52:25.517Z,1.16
2023-01-31T01:54:57.294Z,1.12
2023-01-31T01:57:31.783Z,1.10
2023-01-31T02:00:10.071Z,1.07
2023-01-31T02:02:44.168Z,1.07
2023-01-31T02:05:15.864Z,1.08
2023-01-31T02:07:44.352Z,1.08
2023-01-31T02:10:17.468Z,1.10
2023-01-31T02:12:46.143Z,1.08
2023-01-31T02:15:15.923Z,1.10
2023-01-31T02:17:44.063Z,1.10
2023-01-31T02:20:26.695Z,1.09
2023-01-31T02:23:10.639Z,1.07
2023-01-31T02:26:11.281Z,1.02
2023-01-31T02:29:16.587Z,1.01
2023-01-31T02:32:24.990Z,0.97
2023-01-31T02:35:04.638Z,0.95
2023-01-31T02:37:45.735Z,0.96
2023-01-31T02:40:21.721Z,0.98
2023-01-31T02:42:56.183Z,0.88
2023-01-31T02:45:31.729Z,0.89
2023-01-31T02:48:14.758Z,0.86
2023-01-31T02:51:00.412Z,0.81
2023-01-31T02:53:34.406Z,0.85
2023-01-31T02:56:18.342Z,0.86
2023-01-31T02:58:53.152Z,0.71
2023-01-31T03:01:25.463Z,0.67
2023-01-31T03:03:55.019Z,0.73
2023-01-31T03:07:00.376Z,0.72
2023-01-31T03:09:49.705Z,0.73
2023-01-31T03:12:30.723Z,0.70
2023-01-31T03:15:18.027Z,0.68
2023-01-31T03:17:56.995Z,0.67
2023-01-31T03:20:31.149Z,0.69
2023-01-31T03:23:06.150Z,0.70
2023-01-31T03:25:38.315Z,0.70
2023-01-31T03:28:13.116Z,0.68
2023-01-31T03:30:44.747Z,0.71
2023-01-31T03:33:20.673Z,0.69
2023-01-31T03:35:57.029Z,0.67
2023-01-31T03:38:32.505Z,0.66
2023-01-31T03:41:08.749Z,0.63
2023-01-31T03:43:44.490Z,0.66
2023-01-31T03:46:17.988Z,0.67
2023-01-31T03:48:50.893Z,0.65
2023-01-31T03:51:22.486Z,0.66
2023-01-31T03:53:56.033Z,0.64
2023-01-31T03:56:33.717Z,0.66
2023-01-31T03:59:08.584Z,0.68
2023-01-31T04:01:41.753Z,0.65
2023-01-31T04:04:12.912Z,0.64
2023-01-31T04:06:41.219Z,0.63
2023-01-31T04:09:11.784Z,0.59
2023-01-31T04:11:42.167Z,0.59
2023-01-31T04:14:11.523Z,0.61
2023-01-31T04:16:39.518Z,0.61
2023-01-31T04:19:07.470Z,0.60
2023-01-31T04:21:35.477Z,0.60
2023-01-31T04:24:03.546Z,0.64
2023-01-31T04:26:33.308Z,0.61
2023-01-31T04:29:01.417Z,0.57
2023-01-31T04:31:29.493Z,0.54
2023-01-31T04:33:58.443Z,0.54
2023-01-31T04:36:27.091Z,0.53
2023-01-31T04:38:55.068Z,0.54
2023-01-31T04:41:23.048Z,0.52
2023-01-31T04:43:52.384Z,0.51
2023-01-31T04:46:20.934Z,0.49
2023-01-31T04:48:48.960Z,0.51
2023-01-31T04:51:16.962Z,0.54
2023-01-31T04:53:45.224Z,0.57
2023-01-31T04:56:13.253Z,0.55
2023-01-31T04:58:41.575Z,0.51
2023-01-31T05:01:11.191Z,0.56
2023-01-31T05:03:39.231Z,0.60
2023-01-31T05:06:08.614Z,0.68
2023-01-31T05:08:36.813Z,0.73
2023-01-31T05:11:07.543Z,0.77
2023-01-31T05:13:38.179Z,0.78
2023-01-31T05:16:08.624Z,0.81
2023-01-31T05:18:38.390Z,0.85
2023-01-31T05:21:07.836Z,0.88
2023-01-31T05:23:36.186Z,0.90
2023-01-31T05:26:04.949Z,0.97
2023-01-31T05:28:32.996Z,1.01
2023-01-31T05:31:06.847Z,0.96
2023-01-31T05:33:37.159Z,0.97
2023-01-31T05:36:05.979Z,0.99
2023-01-31T05:38:34.044Z,1.01
2023-01-31T05:41:02.047Z,0.94
2023-01-31T05:43:30.037Z,0.90
2023-01-31T05:45:58.146Z,0.88
2023-01-31T05:48:26.110Z,0.88
2023-01-31T05:50:55.428Z,0.94
2023-01-31T05:53:23.554Z,0.97
2023-01-31T05:55:51.522Z,0.97
2023-01-31T05:58:19.474Z,0.95
2023-01-31T06:00:47.455Z,0.90
2023-01-31T06:03:15.649Z,0.85
2023-01-31T06:05:43.652Z,0.82
2023-01-31T06:08:13.874Z,0.79
2023-01-31T06:10:41.855Z,0.68
2023-01-31T06:13:09.860Z,0.71
2023-01-31T06:15:38.081Z,0.69
2023-01-31T06:18:06.201Z,0.70
2023-01-31T06:20:34.159Z,0.73
2023-01-31T06:23:02.290Z,0.78
2023-01-31T06:25:32.048Z,0.82
2023-01-31T06:28:00.113Z,0.83
2023-01-31T06:30:28.193Z,0.84
2023-01-31T06:32:56.478Z,0.90
2023-01-31T06:35:24.474Z,1.06
2023-01-31T06:37:52.832Z,1.21
2023-01-31T06:40:21.060Z,1.32
2023-01-31T06:42:50.401Z,1.36
2023-01-31T06:45:19.203Z,1.35
2023-01-31T06:47:47.592Z,1.38
2023-01-31T06:50:15.551Z,1.44
2023-01-31T06:52:44.013Z,1.49
2023-01-31T06:55:12.622Z,1.53
2023-01-31T06:57:48.110Z,1.53
2023-01-31T07:00:19.674Z,1.58
2023-01-31T07:02:48.141Z,1.61
2023-01-31T07:05:16.375Z,1.62
2023-01-31T07:07:44.391Z,1.67
2023-01-31T07:10:13.753Z,1.65
2023-01-31T07:12:41.869Z,1.66
2023-01-31T07:15:11.493Z,1.67
2023-01-31T07:17:40.990Z,1.64
2023-01-31T07:20:10.778Z,1.51
2023-01-31T07:22:38.784Z,1.40
2023-01-31T07:25:07.586Z,1.38
2023-01-31T07:27:35.626Z,1.41
2023-01-31T07:30:03.648Z,1.44
2023-01-31T07:32:32.300Z,1.48
2023-01-31T07:35:01.711Z,1.50
2023-01-31T07:37:30.008Z,1.51
2023-01-31T07:39:57.986Z,1.51
2023-01-31T07:42:25.951Z,1.52
2023-01-31T07:44:54.845Z,1.53
2023-01-31T07:47:22.850Z,1.50
2023-01-31T07:49:51.453Z,1.38
2023-01-31T07:52:20.791Z,1.29
2023-01-31T07:54:49.145Z,1.35
2023-01-31T07:57:17.923Z,1.44
2023-01-31T07:59:45.887Z,1.47
2023-01-31T08:02:32.993Z,1.58
2023-01-31T08:05:01.371Z,1.47
2023-01-31T08:07:31.838Z,1.43
2023-01-31T08:09:59.863Z,1.49
2023-01-31T08:12:27.829Z,1.55
2023-01-31T08:14:55.990Z,1.59
2023-01-31T08:17:24.011Z,1.63
2023-01-31T08:19:52.026Z,1.74
2023-01-31T08:22:20.163Z,1.87
2023-01-31T08:24:49.504Z,1.84
2023-01-31T08:27:18.426Z,1.93
2023-01-31T08:29:46.400Z,2.00
2023-01-31T08:32:14.459Z,1.99
2023-01-31T08:34:43.572Z,1.92
2023-01-31T08:37:11.637Z,1.88
2023-01-31T08:39:39.823Z,1.90
2023-01-31T08:42:09.188Z,1.92
2023-01-31T08:44:38.528Z,1.97
2023-01-31T08:47:06.636Z,1.91
2023-01-31T08:49:37.048Z,1.81
2023-01-31T08:52:05.446Z,1.87
2023-01-31T08:54:33.397Z,2.01
2023-01-31T08:57:01.372Z,2.14
2023-01-31T08:59:31.391Z,2.20
2023-01-31T09:01:59.508Z,2.20
2023-01-31T09:04:27.587Z,2.18
2023-01-31T09:06:55.884Z,2.23
2023-01-31T09:09:25.993Z,2.33
2023-01-31T09:11:54.050Z,2.48
2023-01-31T09:14:22.054Z,2.58
2023-01-31T09:16:51.453Z,2.69
2023-01-31T09:19:19.626Z,2.69
2023-01-31T09:21:47.622Z,2.82
2023-01-31T09:24:15.637Z,2.91
2023-01-31T09:26:43.667Z,2.87
2023-01-31T09:29:11.673Z,2.88
2023-01-31T09:31:39.759Z,2.86
2023-01-31T09:34:09.203Z,2.91
2023-01-31T09:36:37.137Z,3.02
2023-01-31T09:39:05.386Z,3.18
2023-01-31T09:41:38.138Z,3.21
2023-01-31T09:44:11.740Z,3.21
2023-01-31T09:46:43.557Z,3.25
2023-01-31T09:49:20.337Z,3.22
2023-01-31T09:51:53.396Z,3.21
2023-01-31T09:54:29.685Z,3.02
2023-01-31T09:57:06.961Z,3.04
2023-01-31T09:59:44.235Z,3.09
2023-01-31T10:02:38.724Z,3.20
2023-01-31T10:05:23.109Z,3.27
2023-01-31T10:08:00.775Z,3.24
2023-01-31T10:10:37.585Z,3.23
2023-01-31T10:13:14.168Z,3.31
2023-01-31T10:15:46.279Z,3.33
2023-01-31T10:18:19.239Z,3.34
2023-01-31T10:20:53.435Z,3.40
2023-01-31T10:23:27.893Z,3.47
2023-01-31T10:26:00.755Z,3.50
2023-01-31T10:28:35.729Z,3.50
2023-01-31T10:31:13.359Z,3.57
2023-01-31T10:33:49.452Z,3.74
2023-01-31T10:36:27.964Z,3.89
2023-01-31T10:39:01.594Z,3.94
2023-01-31T10:41:42.302Z,3.98
2023-01-31T10:44:20.995Z,4.07
2023-01-31T10:46:49.433Z,4.10
2023-01-31T10:49:18.277Z,4.15
2023-01-31T10:52:06.831Z,4.14
2023-01-31T10:54:43.900Z,4.06
2023-01-31T10:57:11.988Z,3.93
2023-01-31T10:59:44.477Z,3.95
2023-01-31T11:02:21.153Z,4.12
2023-01-31T11:04:52.370Z,4.19
2023-01-31T11:07:22.700Z,4.12
2023-01-31T11:09:54.067Z,4.10
2023-01-31T11:12:23.078Z,4.18
2023-01-31T11:15:08.246Z,4.32
2023-01-31T11:17:39.038Z,4.37
2023-01-31T11:20:08.084Z,4.41
2023-01-31T11:22:38.781Z,4.48
2023-01-31T11:25:08.026Z,4.50
2023-01-31T11:27:40.781Z,4.43
2023-01-31T11:30:22.931Z,4.47
2023-01-31T11:32:51.270Z,4.60
2023-01-31T11:35:28.699Z,4.71
2023-01-31T11:38:00.072Z,4.64
2023-01-31T11:40:31.450Z,4.74
2023-01-31T11:43:01.418Z,4.82
2023-01-31T11:45:32.154Z,4.95
2023-01-31T11:48:08.352Z,4.96
2023-01-31T11:50:39.125Z,4.99
2023-01-31T11:53:18.787Z,4.96
2023-01-31T11:55:48.973Z,4.90
2023-01-31T11:58:22.209Z,4.93
2023-01-31T12:00:57.132Z,4.99
2023-01-31T12:03:26.429Z,5.08
2023-01-31T12:06:04.907Z,5.17
2023-01-31T12:08:37.326Z,5.20
2023-01-31T12:11:07.044Z,5.23
2023-01-31T12:13:47.715Z,5.20
2023-01-31T12:16:18.858Z,5.31
2023-01-31T12:18:59.626Z,5.26
2023-01-31T12:21:41.349Z,5.21
2023-01-31T12:24:24.376Z,5.23
2023-01-31T12:26:56.354Z,5.38
2023-01-31T12:29:48.976Z,5.57
2023-01-31T12:32:41.768Z,5.59
2023-01-31T12:35:27.577Z,5.64
2023-01-31T12:38:06.108Z,5.65
2023-01-31T12:40:50.282Z,5.59
2023-01-31T12:43:39.053Z,5.38
2023-01-31T12:46:16.258Z,5.30
2023-01-31T12:49:05.478Z,5.21
2023-01-31T12:51:44.648Z,5.14
2023-01-31T12:54:25.282Z,4.83
2023-01-31T12:57:02.966Z,4.95
2023-01-31T12:59:46.625Z,5.00
2023-01-31T13:02:33.790Z,5.29
2023-01-31T13:05:10.667Z,5.55
2023-01-31T13:07:44.044Z,5.55
2023-01-31T13:10:26.324Z,5.71
2023-01-31T13:12:58.179Z,5.64
2023-01-31T13:15:34.054Z,5.61
2023-01-31T13:18:06.144Z,5.72
2023-01-31T13:20:40.019Z,5.92
2023-01-31T13:23:14.461Z,6.00
2023-01-31T13:25:45.832Z,6.04
2023-01-31T13:28:20.112Z,6.11
2023-01-31T13:30:56.403Z,6.14
2023-01-31T13:33:33.742Z,6.15
2023-01-31T13:36:09.728Z,6.23
2023-01-31T13:38:42.380Z,6.29
2023-01-31T13:41:18.733Z,6.35
2023-01-31T13:43:48.098Z,6.49
2023-01-31T13:46:21.178Z,6.51
2023-01-31T13:48:55.982Z,6.39
2023-01-31T13:51:29.278Z,6.48
2023-01-31T13:54:02.414Z,6.60
2023-01-31T13:56:34.928Z,6.60
2023-01-31T13:59:08.397Z,6.51
2023-01-31T14:01:44.328Z,6.65
2023-01-31T14:04:33.627Z,6.63
2023-01-31T14:07:23.941Z,6.82
2023-01-31T14:10:37.858Z,6.86
2023-01-31T14:13:38.809Z,6.78
2023-01-31T14:16:39.950Z,6.73
2023-01-31T14:19:46.897Z,6.61
2023-01-31T14:22:17.155Z,6.61
2023-01-31T14:25:04.675Z,6.61
2023-01-31T14:27:35.949Z,6.67
2023-01-31T14:30:35.839Z,6.72
2023-01-31T14:33:09.183Z,6.84
2023-01-31T14:35:51.895Z,6.93
2023-01-31T14:38:29.608Z,7.10
2023-01-31T14:41:07.055Z,7.29
2023-01-31T14:43:50.127Z,7.32
2023-01-31T14:46:38.660Z,7.25
2023-01-31T14:49:35.769Z,7.33
2023-01-31T14:52:21.410Z,7.41
2023-01-31T14:55:10.485Z,7.15
2023-01-31T14:57:42.207Z,7.20
2023-01-31T15:00:21.261Z,7.21
2023-01-31T15:02:54.948Z,7.09
2023-01-31T15:05:40.519Z,7.18
2023-01-31T15:08:35.041Z,7.28
2023-01-31T15:11:05.360Z,7.51
2023-01-31T15:13:47.294Z,7.76
2023-01-31T15:16:21.436Z,7.84
2023-01-31T15:18:54.124Z,7.86
2023-01-31T15:21:28.051Z,8.00
2023-01-31T15:23:57.110Z,8.15
2023-01-31T15:26:29.700Z,8.09
2023-01-31T15:28:59.199Z,8.07
2023-01-31T15:31:32.228Z,8.11
2023-01-31T15:34:04.987Z,7.90
2023-01-31T15:36:39.834Z,7.97
2023-01-31T15:39:21.314Z,7.98
2023-01-31T15:41:49.451Z,7.98
2023-01-31T15:44:20.739Z,7.87
2023-01-31T15:46:50.711Z,7.89
2023-01-31T15:49:39.207Z,7.86
2023-01-31T15:52:15.489Z,7.90
2023-01-31T15:54:53.696Z,7.94
2023-01-31T15:57:24.068Z,7.78
2023-01-31T15:59:52.359Z,7.60
2023-01-31T16:02:26.281Z,7.46
2023-01-31T16:04:54.690Z,7.47
2023-01-31T16:07:28.580Z,7.53
2023-01-31T16:09:58.318Z,7.49
2023-01-31T16:12:27.237Z,7.36
2023-01-31T16:14:59.339Z,7.30
2023-01-31T16:17:28.792Z,7.30
2023-01-31T16:19:58.310Z,7.25
2023-01-31T16:22:29.757Z,7.16
2023-01-31T16:24:59.461Z,7.15
2023-01-31T16:27:30.032Z,7.09
2023-01-31T16:29:59.540Z,6.90
2023-01-31T16:32:30.591Z,6.68
2023-01-31T16:35:02.162Z,6.49
2023-01-31T16:37:37.177Z,6.34
2023-01-31T16:40:11.812Z,6.21
2023-01-31T16:42:39.840Z,6.06
2023-01-31T16:45:28.392Z,5.91
2023-01-31T16:47:56.514Z,5.85
2023-01-31T16:50:42.557Z,5.67
2023-01-31T16:53:26.306Z,5.53
2023-01-31T16:56:22.927Z,5.49
2023-01-31T16:58:56.425Z,5.45
2023-01-31T17:01:27.854Z,5.47
2023-01-31T17:04:18.161Z,5.43
2023-01-31T17:06:51.036Z,5.44
2023-01-31T17:09:23.143Z,5.41
2023-01-31T17:11:51.618Z,5.39
2023-01-31T17:14:19.694Z,5.29
2023-01-31T17:16:51.129Z,5.26
2023-01-31T17:19:19.187Z,5.20
2023-01-31T17:21:49.844Z,5.15
2023-01-31T17:24:19.376Z,5.16
2023-01-31T17:26:48.875Z,5.17
2023-01-31T17:29:16.979Z,5.17
2023-01-31T17:31:44.963Z,5.09
2023-01-31T17:34:14.736Z,5.01
2023-01-31T17:36:43.232Z,5.04
2023-01-31T17:39:11.462Z,5.07
2023-01-31T17:41:41.294Z,5.05
2023-01-31T17:44:14.559Z,5.01
2023-01-31T17:46:43.118Z,5.06
2023-01-31T17:49:11.387Z,4.99
2023-01-31T17:51:39.493Z,4.95
2023-01-31T17:54:07.494Z,4.97
2023-01-31T17:56:36.131Z,4.96
2023-01-31T17:59:05.763Z,4.98
2023-01-31T18:01:35.259Z,4.98
2023-01-31T18:04:04.511Z,5.02
2023-01-31T18:06:32.653Z,5.01
2023-01-31T18:09:05.865Z,5.03
2023-01-31T18:11:34.529Z,5.03
2023-01-31T18:14:03.933Z,5.05
2023-01-31T18:16:32.704Z,4.98
2023-01-31T18:19:02.102Z,4.98
2023-01-31T18:21:30.121Z,4.92
2023-01-31T18:23:59.983Z,4.89
2023-01-31T18:26:28.345Z,4.93
2023-01-31T18:28:57.676Z,4.86
2023-01-31T18:31:26.140Z,4.86
2023-01-31T18:33:54.208Z,4.86
2023-01-31T18:36:23.940Z,4.85
2023-01-31T18:38:52.468Z,4.79
2023-01-31T18:41:22.002Z,4.72
2023-01-31T18:43:50.581Z,4.68
2023-01-31T18:46:18.684Z,4.66
2023-01-31T18:48:46.893Z,4.60
2023-01-31T18:51:16.404Z,4.63
2023-01-31T18:53:47.641Z,4.65
2023-01-31T18:56:17.487Z,4.63
2023-01-31T18:58:46.641Z,4.62
2023-01-31T19:01:17.415Z,4.57
2023-01-31T19:03:46.916Z,4.56
2023-01-31T19:06:16.084Z,4.55
2023-01-31T19:08:49.406Z,4.58
2023-01-31T19:11:19.366Z,4.61
2023-01-31T19:13:47.771Z,4.62
2023-01-31T19:16:17.478Z,4.61
2023-01-31T19:18:46.029Z,4.58
2023-01-31T19:21:17.917Z,4.59
2023-01-31T19:23:47.828Z,4.54
2023-01-31T19:26:17.209Z,4.46
2023-01-31T19:28:46.519Z,4.42
2023-01-31T19:31:16.664Z,4.40
2023-01-31T19:33:50.141Z,4.38
2023-01-31T19:36:19.725Z,4.33
2023-01-31T19:38:49.333Z,4.31
2023-01-31T19:41:19.401Z,4.31
2023-01-31T19:43:49.086Z,4.29
2023-01-31T19:46:17.073Z,4.26
2023-01-31T19:48:45.105Z,4.23
2023-01-31T19:51:14.935Z,4.22
2023-01-31T19:53:45.325Z,4.24
2023-01-31T19:56:15.184Z,4.24
2023-01-31T19:58:43.456Z,4.25
2023-01-31T20:01:13.644Z,4.24
2023-01-31T20:03:41.689Z,4.29
2023-01-31T20:06:12.115Z,4.28
2023-01-31T20:08:40.475Z,4.24
2023-01-31T20:11:09.256Z,4.24
2023-01-31T20:13:38.737Z,4.22
2023-01-31T20:16:08.906Z,4.12
2023-01-31T20:18:38.425Z,4.12
2023-01-31T20:21:07.769Z,4.11
2023-01-31T20:23:36.768Z,4.12
2023-01-31T20:26:04.897Z,4.13
2023-01-31T20:28:34.358Z,4.13
2023-01-31T20:31:08.302Z,4.10
2023-01-31T20:33:36.605Z,4.11
2023-01-31T20:36:05.307Z,4.12
2023-01-31T20:38:33.527Z,4.12
2023-01-31T20:41:01.486Z,4.20
2023-01-31T20:43:29.515Z,4.16
2023-01-31T20:46:03.611Z,4.09
2023-01-31T20:48:33.461Z,4.05
2023-01-31T20:51:01.567Z,4.05
2023-01-31T20:53:30.427Z,4.07
2023-01-31T20:55:59.865Z,4.02
2023-01-31T20:58:28.831Z,3.99
2023-01-31T21:00:58.196Z,3.95
2023-01-31T21:03:26.774Z,3.91
2023-01-31T21:05:58.428Z,3.90
2023-01-31T21:08:27.329Z,3.87
2023-01-31T21:10:57.410Z,3.87
2023-01-31T21:13:27.936Z,3.84
2023-01-31T21:15:58.065Z,3.84
2023-01-31T21:18:28.735Z,3.82
2023-01-31T21:20:58.389Z,3.77
2023-01-31T21:23:26.519Z,3.72
2023-01-31T21:25:54.566Z,3.68
2023-01-31T21:28:27.215Z,3.66
2023-01-31T21:30:59.752Z,3.63
2023-01-31T21:33:29.752Z,3.60
2023-01-31T21:36:00.779Z,3.60
2023-01-31T21:38:28.956Z,3.56
2023-01-31T21:41:10.840Z,3.55
2023-01-31T21:43:41.352Z,3.51
2023-01-31T21:46:10.032Z,3.47
2023-01-31T21:48:38.556Z,3.46
2023-01-31T21:51:10.068Z,3.44
2023-01-31T21:53:38.899Z,3.46
2023-01-31T21:56:09.061Z,3.44
2023-01-31T21:58:38.433Z,3.47
2023-01-31T22:01:07.860Z,3.45
2023-01-31T22:03:36.173Z,3.40
2023-01-31T22:06:05.362Z,3.38
2023-01-31T22:08:35.369Z,3.35
2023-01-31T22:11:04.987Z,3.35
2023-01-31T22:13:33.654Z,3.28
2023-01-31T22:16:02.476Z,3.23
2023-01-31T22:18:32.383Z,3.17
2023-01-31T22:21:05.329Z,3.21
2023-01-31T22:23:35.629Z,3.18
2023-01-31T22:26:05.304Z,3.10
2023-01-31T22:28:33.739Z,3.06
2023-01-31T22:31:02.524Z,3.06
2023-01-31T22:33:31.179Z,3.07
2023-01-31T22:35:59.577Z,3.11
2023-01-31T22:38:28.478Z,3.13
2023-01-31T22:41:00.104Z,3.10
2023-01-31T22:43:28.997Z,3.10
2023-01-31T22:45:58.548Z,3.04
2023-01-31T22:48:27.609Z,3.05
2023-01-31T22:50:57.136Z,3.06
2023-01-31T22:53:25.818Z,3.13
2023-01-31T22:55:54.025Z,3.18
2023-01-31T22:58:23.439Z,3.24
2023-01-31T23:00:51.453Z,3.26
2023-01-31T23:03:19.521Z,3.23
2023-01-31T23:05:47.526Z,3.21
2023-01-31T23:08:16.470Z,3.24
2023-01-31T23:10:45.106Z,3.26
2023-01-31T23:13:13.678Z,3.33
2023-01-31T23:15:43.230Z,3.44
2023-01-31T23:18:11.300Z,3.43
2023-01-31T23:20:39.251Z,3.41
2023-01-31T23:23:07.245Z,3.39
2023-01-31T23:25:35.208Z,3.42
2023-01-31T23:28:03.537Z,3.46
2023-01-31T23:30:31.640Z,3.49
2023-01-31T23:33:01.077Z,3.53
2023-01-31T23:35:29.200Z,3.56
2023-01-31T23:37:57.157Z,3.58
2023-01-31T23:40:25.203Z,3.55
2023-01-31T23:42:53.171Z,3.55
2023-01-31T23:45:21.195Z,3.57
2023-01-31T23:47:50.421Z,3.61
2023-01-31T23:50:20.658Z,3.65
2023-01-31T23:52:48.853Z,3.63
2023-01-31T23:55:18.279Z,3.57
2023-01-31T23:57:46.745Z,3.54
